Terminal Aerodrome Forecast
Issued by NWS Melbourne, FL

Home | Current Version | Previous Version | Text Only | Print | Product List | Glossary On
Versions: 1 2 3 4 5 6 7 8 9 10 11 12 13 14 15 16 17 18 19 20 21 22 23 24
107
FTUS42 KMLB 241725
TAFMCO
TAF
KMCO 241725Z 2418/2518 11011KT P6SM VCSH SCT045
     FM242100 10013KT P6SM SCT050 BKN250
     FM250200 08006KT P6SM FEW060 SCT250
     FM251400 07009KT P6SM FEW025=

USA.gov is the U.S. government's official web portal to all federal, state and local government web resources and services.